Latest Coastal Weather Observations for Portland Harbour

IDS60701

Issued at 7:22 am CDT Saturday 28 March 2015 (issued every 10 minutes, with the page automatically refreshed every 10 minutes)

About coastal observations | Map of coastal stations | Coastal observations for SA | Marine services | Other Formats
Station Details ID: 090192 Name: PORTLAND NTC AWS Lat: -38.34 Lon: 141.61 Height: 0.0 m
Data from the previous 72 hours. | See also: Recent months for locations in South Australia
Date/Time
CDT
Temp

°C
Wind Pressure Rain
since 9am
mm
Weather Cloud Vis
km
Sea
Height
m
Swell
Dir
 
Speed
knots
Gust
knots
hPa Trend Height
m
Period
s
Dir
28/07:00am - NW 7 9 1025.1 - - - - - - - - -
28/06:30am - N 3 5 1024.7 - - - - - - - - -
28/06:00am - WNW 5 7 1024.6 - - - - - - - - -
28/05:30am 11.9 NW 5 8 1024.6 - - - - - - - - -
28/05:00am 11.7 NW 7 9 1024.7 - - - - - - - - -
28/04:30am - NW 7 8 1024.6 - - - - - - - - -
28/04:00am - NW 4 6 1024.8 - - - - - - - - -
28/03:30am - NNW 3 4 1024.9 - - - - - - - - -
28/03:00am - W 3 4 1025.1 - - - - - - - - -
28/02:30am 12.2 WSW 4 5 1025.3 - - - - - - - - -
28/02:00am 12.3 WSW 4 5 1025.6 - - - - - - - - -
28/01:30am 12.4 NW 5 7 1025.7 - - - - - - - - -
28/01:00am - NW 3 4 1025.7 - - - - - - - - -
28/12:30am 12.5 NW 3 4 1025.8 - - - - - - - - -
28/12:00am 12.4 W 3 4 1025.9 - - - - - - - - -
 
Date/Time
CDT
Temp

°C
Wind Pressure Rain
since 9am
mm
Weather Cloud Vis
km
Sea
Height
m
Swell
Dir
 
Speed
knots
Gust
knots
hPa Trend Height
m
Period
s
Dir
27/11:30pm - WSW 5 6 1026.1 - - - - - - - - -
27/11:00pm - W 4 5 1026.2 - - - - - - - - -
27/10:30pm - W 3 4 1026.2 - - - - - - - - -
27/10:00pm 13.0 WSW 2 3 1026.2 - - - - - - - - -
27/09:30pm - SW 6 8 1026.6 - - - - - - - - -
27/09:00pm - WSW 5 6 1026.4 - - - - - - - - -
27/08:30pm - WSW 5 7 1026.2 - - - - - - - - -
27/08:00pm - SW 5 7 1026.1 - - - - - - - - -
27/07:30pm - SW 6 8 1025.9 - - - - - - - - -
27/07:00pm 14.6 SW 5 7 1025.6 - - - - - - - - -
27/06:30pm - SW 7 9 1025.5 - - - - - - - - -
27/06:00pm - SSW 8 12 1025.4 - - - - - - - - -
27/05:30pm - SSW 9 12 1025.2 - - - - - - - - -
27/05:00pm - SSW 9 13 1025.1 - - - - - - - - -
27/04:30pm - SSW 11 14 1025.1 - - - - - - - - -
27/04:00pm - S 12 15 1025.1 - - - - - - - - -
27/03:30pm - SSW 11 16 1025.1 - - - - - - - - -
27/03:00pm - SSW 10 14 1025.1 - - - - - - - - -
27/02:30pm - SSW 10 15 1025.2 - - - - - - - - -
27/02:00pm - SSW 14 20 1025.6 - - - - - - - - -
27/01:30pm - SSW 11 15 1025.7 - - - - - - - - -
27/01:00pm - SSW 11 15 1026.0 - - - - - - - - -
27/12:30pm - SW 9 15 1026.1 - - - - - - - - -
27/12:00pm - WSW 12 19 1026.2 - - - - - - - - -
27/11:30am 14.8 WSW 7 11 1026.0 - - - - - - - - -
27/11:00am - SW 10 13 1026.0 - - - - - - - - -
27/10:30am - SSW 12 17 1025.9 - - - - - - - - -
27/10:00am - SSW 13 17 1025.9 - - - - - - - - -
27/09:30am - SSW 14 19 1025.7 - - - - - - - - -
27/09:00am - SSW 15 20 1025.5 - - - - - - - - -
27/08:30am - SW 12 18 1025.3 - - - - - - - - -
27/08:00am - SW 10 12 1025.0 - - - - - - - - -
27/07:30am - SSW 13 20 1024.7 - - - - - - - - -
27/07:00am - SW 12 20 1024.4 - - - - - - - - -
27/06:30am - SW 10 13 1023.9 - - - - - - - - -
27/06:00am - SW 10 15 1023.7 - - - - - - - - -
27/05:30am - SW 11 15 1023.4 - - - - - - - - -
27/05:00am - SW 8 12 1023.3 - - - - - - - - -
27/04:30am - SW 13 17 1023.1 - - - - - - - - -
27/04:00am - SW 12 19 1023.0 - - - - - - - - -
27/03:30am - SW 12 17 1022.8 - - - - - - - - -
27/03:00am - SW 17 26 1022.9 - - - - - - - - -
27/02:57am 14.1 SW 15 26 1022.9 - - - - - - - - -
27/02:30am 14.0 SW 13 18 1022.8 - - - - - - - - -
27/02:00am - SW 11 15 1022.7 - - - - - - - - -
27/01:30am - SW 13 21 1022.7 - - - - - - - - -
27/01:00am 14.0 SW 11 16 1022.5 - - - - - - - - -
27/12:30am - SW 12 19 1022.5 - - - - - - - - -
27/12:00am - SW 13 21 1022.5 - - - - - - - - -
 
Date/Time
CDT
Temp

°C
Wind Pressure Rain
since 9am
mm
Weather Cloud Vis
km
Sea
Height
m
Swell
Dir
 
Speed
knots
Gust
knots
hPa Trend Height
m
Period
s
Dir
26/11:30pm - SW 15 22 1022.5 - - - - - - - - -
26/11:00pm - SW 14 21 1022.4 - - - - - - - - -
26/10:30pm - SSW 16 24 1022.1 - - - - - - - - -
26/10:00pm - SSW 17 25 1022.0 - - - - - - - - -
26/09:30pm - SW 14 20 1021.6 - - - - - - - - -
26/09:00pm - SW 16 24 1021.2 - - - - - - - - -
26/08:33pm 14.5 SW 17 27 1020.7 - - - - - - - - -
26/08:30pm 14.5 SW 16 24 1020.7 - - - - - - - - -
26/08:01pm - SW 18 28 1020.4 - - - - - - - - -
26/08:00pm - SW 19 28 1020.3 - - - - - - - - -
26/07:34pm - SW 16 26 1020.0 - - - - - - - - -
26/07:30pm - SW 16 22 1019.8 - - - - - - - - -
26/07:00pm - SW 17 29 1019.2 - - - - - - - - -
26/06:56pm - SW 17 29 1019.1 - - - - - - - - -
26/06:30pm 14.3 SW 14 21 1018.7 - - - - - - - - -
26/06:00pm 13.4 SW 18 28 1018.4 - - - - - - - - -
26/05:36pm - WSW 20 39 1018.0 - - - - - - - - -
26/05:30pm - WSW 20 29 1017.7 - - - - - - - - -
26/05:02pm - WSW 18 28 1017.3 - - - - - - - - -
26/05:00pm - WSW 19 28 1017.3 - - - - - - - - -
26/04:30pm 14.6 WSW 23 38 1016.8 - - - - - - - - -
26/04:00pm - WSW 25 37 1016.5 - - - - - - - - -
26/03:30pm - WSW 24 37 1016.2 - - - - - - - - -
26/03:00pm - WSW 26 40 1016.1 - - - - - - - - -
26/02:30pm 13.6 WSW 23 35 1015.7 - - - - - - - - -
26/02:00pm - W 25 35 1015.6 - - - - - - - - -
26/01:30pm 13.0 WSW 26 42 1015.7 - - - - - - - - -
26/01:25pm - WSW 23 42 1015.9 - - - - - - - - -
26/01:00pm 13.4 W 20 31 1015.5 - - - - - - - - -
26/12:30pm 12.8 W 19 33 1016.0 - - - - - - - - -
26/12:00pm 11.9 W 19 29 1016.0 - - - - - - - - -
26/11:30am 11.7 W 17 33 1016.2 - - - - - - - - -
26/11:09am 11.3 W 15 25 1016.4 - - - - - - - - -
26/11:00am 11.3 W 14 23 1016.6 - - - - - - - - -
26/10:41am 12.1 W 17 30 1016.5 - - - - - - - - -
26/10:30am 13.0 W 19 28 1016.0 - - - - - - - - -
26/10:00am 12.9 W 16 32 1016.1 - - - - - - - - -
26/09:38am 13.2 W 20 31 1016.3 - - - - - - - - -
26/09:30am 12.9 W 18 25 1015.8 - - - - - - - - -
26/09:08am 13.2 W 15 26 1015.9 - - - - - - - - -
26/09:00am 12.8 W 15 23 1016.0 - - - - - - - - -
26/08:41am 12.5 W 15 25 1015.9 - - - - - - - - -
26/08:30am 12.6 WNW 10 16 1015.9 - - - - - - - - -
26/08:00am 11.5 WNW 8 16 1015.9 - - - - - - - - -
26/07:30am 10.9 W 10 17 1015.7 - - - - - - - - -
26/07:00am 9.6 NNW 9 13 1015.4 - - - - - - - - -
26/06:30am 6.9 WSW 16 29 1015.6 - - - - - - - - -
26/06:26am 7.7 WSW 15 29 1016.2 - - - - - - - - -
26/06:00am 11.2 W 8 12 1015.1 - - - - - - - - -
26/05:30am 10.8 WNW 7 13 1015.0 - - - - - - - - -
26/05:00am 10.3 WNW 9 14 1014.6 - - - - - - - - -
26/04:30am 10.2 WSW 14 20 1014.5 - - - - - - - - -
26/04:00am 10.5 WSW 13 20 1014.6 - - - - - - - - -
26/03:30am 10.9 WSW 18 31 1014.1 - - - - - - - - -
26/03:27am 10.8 WSW 17 31 1014.0 - - - - - - - - -
26/03:26am 10.7 WSW 16 26 1013.9 - - - - - - - - -
26/03:00am 10.2 NW 10 15 1014.2 - - - - - - - - -
26/02:30am 10.1 NNW 9 12 1014.1 - - - - - - - - -
26/02:00am 10.4 NNW 8 15 1014.2 - - - - - - - - -
26/01:30am 10.8 NNW 3 7 1014.3 - - - - - - - - -
26/01:00am 10.7 WNW 7 13 1014.1 - - - - - - - - -
26/12:30am 10.6 NW 7 11 1014.0 - - - - - - - - -
26/12:00am 10.2 NW 8 11 1014.1 - - - - - - - - -
 
Date/Time
CDT
Temp

°C
Wind Pressure Rain
since 9am
mm
Weather Cloud Vis
km
Sea
Height
m
Swell
Dir
 
Speed
knots
Gust
knots
hPa Trend Height
m
Period
s
Dir
25/11:30pm 10.6 NW 8 11 1014.1 - - - - - - - - -
25/11:00pm 10.8 W 11 17 1014.0 - - - - - - - - -
25/10:30pm 10.9 NNW 9 12 1013.8 - - - - - - - - -
25/10:00pm 10.4 NW 8 13 1014.1 - - - - - - - - -
25/09:30pm 10.7 NNW 14 17 1013.6 - - - - - - - - -
25/09:00pm 10.4 NW 11 16 1013.8 - - - - - - - - -
25/08:30pm 10.9 NW 9 13 1013.3 - - - - - - - - -
25/08:00pm 11.1 WNW 10 15 1013.2 - - - - - - - - -
25/07:30pm 11.0 W 14 21 1013.3 - - - - - - - - -
25/07:00pm 11.1 WSW 17 28 1013.0 - - - - - - - - -
25/06:51pm 11.4 WSW 16 28 1012.9 - - - - - - - - -
25/06:30pm 12.3 WSW 16 23 1012.4 - - - - - - - - -
25/06:16pm 13.4 WSW 17 35 1012.1 - - - - - - - - -
25/06:15pm 13.6 WSW 16 26 1012.0 - - - - - - - - -
25/06:00pm 15.8 W 19 31 1011.3 - - - - - - - - -
25/05:54pm 16.6 WNW 20 31 1011.1 - - - - - - - - -
25/05:36pm 18.7 NW 15 26 1010.6 - - - - - - - - -
25/05:30pm 18.7 NW 15 25 1010.6 - - - - - - - - -
25/05:14pm 18.8 NNW 15 27 1010.4 - - - - - - - - -
25/05:00pm 18.6 NNW 19 25 1010.5 - - - - - - - - -
25/04:30pm 18.2 NNW 16 26 1010.8 - - - - - - - - -
25/04:00pm 18.1 NNW 19 29 1010.9 - - - - - - - - -
25/03:51pm 18.2 NNW 17 29 1011.2 - - - - - - - - -
25/03:42pm 18.4 NNW 19 27 1011.3 - - - - - - - - -
25/03:30pm 18.1 NNW 20 29 1011.6 - - - - - - - - -
25/03:00pm 17.9 NNW 17 28 1012.0 - - - - - - - - -
25/02:32pm 18.0 NNW 16 26 1012.3 - - - - - - - - -
25/02:30pm 17.9 NNW 16 25 1012.4 - - - - - - - - -
25/02:20pm 17.8 NNW 17 27 1012.5 - - - - - - - - -
25/02:00pm 17.7 NNW 16 24 1013.0 - - - - - - - - -
25/01:30pm 17.6 NNW 17 26 1013.5 - - - - - - - - -
25/01:00pm 17.1 NNW 15 21 1014.0 - - - - - - - - -
25/12:36pm 16.6 NNW 15 27 1014.5 - - - - - - - - -
25/12:30pm 16.7 NNW 14 21 1014.7 - - - - - - - - -
25/12:00pm 15.7 NNW 16 21 1015.4 - - - - - - - - -
25/11:30am 15.4 NNW 15 20 1015.9 - - - - - - - - -
25/11:00am 14.6 NNW 11 16 1016.4 - - - - - - - - -
25/10:30am 14.2 NNW 13 18 1016.8 - - - - - - - - -
25/10:00am 13.7 NNW 12 14 1017.1 - - - - - - - - -
25/09:30am 13.2 N 13 15 1016.9 - - - - - - - - -
25/09:00am 13.0 NNW 12 15 1017.3 - - - - - - - - -
25/08:30am 12.8 NNW 11 17 1017.6 - - - - - - - - -
25/08:00am 12.7 NNW 10 13 1017.6 - - - - - - - - -
25/07:30am 12.7 NNW 9 12 1017.4 - - - - - - - - -
25/07:00am 12.4 NW 8 11 1017.7 - - - - - - - - -

Other Formats:

Comma delimited format used in spreadsheet applications
http://www.bom.gov.au/fwo/IDS60701/IDS60701.95826.axf

JavaScript Object Notation format (JSON) in row-major order
http://www.bom.gov.au/fwo/IDS60701/IDS60701.95826.json